sensor_id;sensor_type;location;lat;lon;timestamp;P1;durP1;ratioP1;P2;durP2;ratioP2
43363;SDS011;40636;52.424;-1.948;2023-06-04T00:02:21;5.68;;;2.17;;
43363;SDS011;40636;52.424;-1.948;2023-06-04T00:04:48;7.25;;;2.67;;
43363;SDS011;40636;52.424;-1.948;2023-06-04T00:07:15;7.95;;;2.78;;
43363;SDS011;40636;52.424;-1.948;2023-06-04T00:09:42;4.93;;;2.20;;
43363;SDS011;40636;52.424;-1.948;2023-06-04T00:12:10;7.03;;;3.00;;
43363;SDS011;40636;52.424;-1.948;2023-06-04T00:14:37;7.13;;;2.42;;
43363;SDS011;40636;52.424;-1.948;2023-06-04T00:17:05;6.07;;;2.17;;
43363;SDS011;40636;52.424;-1.948;2023-06-04T00:19:32;7.97;;;2.63;;
43363;SDS011;40636;52.424;-1.948;2023-06-04T00:22:00;5.57;;;1.92;;
43363;SDS011;40636;52.424;-1.948;2023-06-04T00:24:27;5.10;;;1.90;;
43363;SDS011;40636;52.424;-1.948;2023-06-04T00:26:54;4.13;;;1.83;;
43363;SDS011;40636;52.424;-1.948;2023-06-04T00:29:20;6.78;;;2.58;;
43363;SDS011;40636;52.424;-1.948;2023-06-04T00:31:47;9.10;;;2.53;;
43363;SDS011;40636;52.424;-1.948;2023-06-04T00:34:16;7.13;;;2.33;;
43363;SDS011;40636;52.424;-1.948;2023-06-04T00:36:44;7.30;;;2.78;;
43363;SDS011;40636;52.424;-1.948;2023-06-04T00:39:11;7.07;;;3.03;;
43363;SDS011;40636;52.424;-1.948;2023-06-04T00:41:38;5.80;;;2.38;;
43363;SDS011;40636;52.424;-1.948;2023-06-04T00:44:05;3.72;;;1.98;;
43363;SDS011;40636;52.424;-1.948;2023-06-04T00:46:33;11.55;;;2.83;;
43363;SDS011;40636;52.424;-1.948;2023-06-04T00:49:05;4.43;;;2.63;;
43363;SDS011;40636;52.424;-1.948;2023-06-04T00:51:32;7.80;;;2.78;;
43363;SDS011;40636;52.424;-1.948;2023-06-04T00:53:59;10.77;;;2.53;;
43363;SDS011;40636;52.424;-1.948;2023-06-04T00:56:36;9.40;;;2.80;;
43363;SDS011;40636;52.424;-1.948;2023-06-04T00:59:06;8.07;;;2.42;;
43363;SDS011;40636;52.424;-1.948;2023-06-04T01:04:09;6.85;;;2.42;;
43363;SDS011;40636;52.424;-1.948;2023-06-04T01:06:56;9.88;;;3.38;;
43363;SDS011;40636;52.424;-1.948;2023-06-04T01:09:26;9.13;;;4.05;;
43363;SDS011;40636;52.424;-1.948;2023-06-04T01:11:54;8.63;;;2.58;;
43363;SDS011;40636;52.424;-1.948;2023-06-04T01:14:24;6.97;;;2.72;;
43363;SDS011;40636;52.424;-1.948;2023-06-04T01:16:56;12.65;;;2.95;;
43363;SDS011;40636;52.424;-1.948;2023-06-04T01:22:15;6.88;;;3.67;;
43363;SDS011;40636;52.424;-1.948;2023-06-04T01:24:53;5.68;;;2.72;;
43363;SDS011;40636;52.424;-1.948;2023-06-04T01:27:22;12.82;;;4.32;;
43363;SDS011;40636;52.424;-1.948;2023-06-04T01:29:50;5.82;;;2.88;;
43363;SDS011;40636;52.424;-1.948;2023-06-04T01:32:17;7.50;;;2.58;;
43363;SDS011;40636;52.424;-1.948;2023-06-04T01:34:45;8.07;;;2.60;;
43363;SDS011;40636;52.424;-1.948;2023-06-04T01:37:13;7.72;;;2.55;;
43363;SDS011;40636;52.424;-1.948;2023-06-04T01:39:40;7.88;;;3.45;;
43363;SDS011;40636;52.424;-1.948;2023-06-04T01:42:08;9.20;;;3.10;;
43363;SDS011;40636;52.424;-1.948;2023-06-04T01:44:36;7.45;;;2.70;;
43363;SDS011;40636;52.424;-1.948;2023-06-04T01:47:03;6.50;;;2.67;;
43363;SDS011;40636;52.424;-1.948;2023-06-04T01:49:30;11.40;;;4.28;;
43363;SDS011;40636;52.424;-1.948;2023-06-04T01:51:57;7.22;;;2.80;;
43363;SDS011;40636;52.424;-1.948;2023-06-04T01:54:24;6.05;;;2.97;;
43363;SDS011;40636;52.424;-1.948;2023-06-04T01:56:51;7.55;;;3.17;;
43363;SDS011;40636;52.424;-1.948;2023-06-04T01:59:18;12.50;;;4.00;;
43363;SDS011;40636;52.424;-1.948;2023-06-04T02:01:46;9.85;;;4.25;;
43363;SDS011;40636;52.424;-1.948;2023-06-04T02:04:13;10.70;;;3.58;;
43363;SDS011;40636;52.424;-1.948;2023-06-04T02:06:40;8.30;;;3.30;;
43363;SDS011;40636;52.424;-1.948;2023-06-04T02:09:07;5.82;;;2.95;;
43363;SDS011;40636;52.424;-1.948;2023-06-04T02:11:34;7.18;;;3.00;;
43363;SDS011;40636;52.424;-1.948;2023-06-04T02:14:01;7.10;;;3.17;;
43363;SDS011;40636;52.424;-1.948;2023-06-04T02:16:28;7.93;;;2.80;;
43363;SDS011;40636;52.424;-1.948;2023-06-04T02:18:55;5.78;;;2.58;;
43363;SDS011;40636;52.424;-1.948;2023-06-04T02:21:22;11.82;;;3.55;;
43363;SDS011;40636;52.424;-1.948;2023-06-04T02:23:49;9.35;;;3.65;;
43363;SDS011;40636;52.424;-1.948;2023-06-04T02:26:16;5.47;;;3.42;;
43363;SDS011;40636;52.424;-1.948;2023-06-04T02:28:43;11.55;;;3.55;;
43363;SDS011;40636;52.424;-1.948;2023-06-04T02:31:10;5.78;;;2.58;;
43363;SDS011;40636;52.424;-1.948;2023-06-04T02:33:37;5.75;;;2.80;;
43363;SDS011;40636;52.424;-1.948;2023-06-04T02:36:04;11.43;;;4.55;;
43363;SDS011;40636;52.424;-1.948;2023-06-04T02:38:31;10.18;;;2.75;;
43363;SDS011;40636;52.424;-1.948;2023-06-04T02:40:59;5.13;;;3.75;;
43363;SDS011;40636;52.424;-1.948;2023-06-04T02:43:26;13.52;;;3.45;;
43363;SDS011;40636;52.424;-1.948;2023-06-04T02:45:53;9.40;;;3.75;;
43363;SDS011;40636;52.424;-1.948;2023-06-04T02:48:20;9.70;;;3.50;;
43363;SDS011;40636;52.424;-1.948;2023-06-04T02:50:47;6.43;;;3.03;;
43363;SDS011;40636;52.424;-1.948;2023-06-04T02:53:14;9.20;;;4.03;;
43363;SDS011;40636;52.424;-1.948;2023-06-04T02:55:41;8.85;;;4.32;;
43363;SDS011;40636;52.424;-1.948;2023-06-04T02:58:08;7.03;;;3.20;;
43363;SDS011;40636;52.424;-1.948;2023-06-04T03:00:35;12.55;;;3.97;;
43363;SDS011;40636;52.424;-1.948;2023-06-04T03:03:02;9.20;;;4.22;;
43363;SDS011;40636;52.424;-1.948;2023-06-04T03:05:29;14.80;;;4.40;;
43363;SDS011;40636;52.424;-1.948;2023-06-04T03:08:00;10.93;;;4.43;;
43363;SDS011;40636;52.424;-1.948;2023-06-04T03:10:29;5.28;;;3.63;;
43363;SDS011;40636;52.424;-1.948;2023-06-04T03:12:57;6.15;;;3.58;;
43363;SDS011;40636;52.424;-1.948;2023-06-04T03:15:24;11.98;;;3.63;;
43363;SDS011;40636;52.424;-1.948;2023-06-04T03:17:51;13.48;;;3.28;;
43363;SDS011;40636;52.424;-1.948;2023-06-04T03:20:19;5.90;;;3.40;;
43363;SDS011;40636;52.424;-1.948;2023-06-04T03:22:45;8.05;;;3.63;;
43363;SDS011;40636;52.424;-1.948;2023-06-04T03:25:12;10.00;;;4.55;;
43363;SDS011;40636;52.424;-1.948;2023-06-04T03:27:40;12.07;;;4.90;;
43363;SDS011;40636;52.424;-1.948;2023-06-04T03:30:07;9.20;;;3.85;;
43363;SDS011;40636;52.424;-1.948;2023-06-04T03:32:34;8.50;;;3.83;;
43363;SDS011;40636;52.424;-1.948;2023-06-04T03:35:02;8.38;;;4.47;;
43363;SDS011;40636;52.424;-1.948;2023-06-04T03:37:29;11.05;;;4.10;;
43363;SDS011;40636;52.424;-1.948;2023-06-04T03:39:56;7.82;;;4.05;;
43363;SDS011;40636;52.424;-1.948;2023-06-04T03:42:23;8.73;;;4.00;;
43363;SDS011;40636;52.424;-1.948;2023-06-04T03:44:50;8.27;;;4.35;;
43363;SDS011;40636;52.424;-1.948;2023-06-04T03:47:17;7.45;;;3.30;;
43363;SDS011;40636;52.424;-1.948;2023-06-04T03:49:44;11.75;;;3.92;;
43363;SDS011;40636;52.424;-1.948;2023-06-04T03:52:11;8.80;;;3.55;;
43363;SDS011;40636;52.424;-1.948;2023-06-04T03:54:38;8.80;;;4.15;;
43363;SDS011;40636;52.424;-1.948;2023-06-04T03:57:05;13.05;;;3.95;;
43363;SDS011;40636;52.424;-1.948;2023-06-04T03:59:32;13.38;;;4.15;;
43363;SDS011;40636;52.424;-1.948;2023-06-04T04:01:59;14.55;;;5.63;;
43363;SDS011;40636;52.424;-1.948;2023-06-04T04:04:26;8.45;;;3.67;;
43363;SDS011;40636;52.424;-1.948;2023-06-04T04:06:53;9.60;;;4.55;;
43363;SDS011;40636;52.424;-1.948;2023-06-04T04:09:20;12.30;;;4.53;;
43363;SDS011;40636;52.424;-1.948;2023-06-04T04:11:47;7.30;;;4.25;;
43363;SDS011;40636;52.424;-1.948;2023-06-04T04:14:14;15.90;;;4.53;;
43363;SDS011;40636;52.424;-1.948;2023-06-04T04:16:41;11.00;;;3.75;;
43363;SDS011;40636;52.424;-1.948;2023-06-04T04:19:08;9.88;;;4.50;;
43363;SDS011;40636;52.424;-1.948;2023-06-04T04:21:35;13.07;;;4.32;;
43363;SDS011;40636;52.424;-1.948;2023-06-04T04:24:03;10.13;;;3.58;;
43363;SDS011;40636;52.424;-1.948;2023-06-04T04:26:30;7.05;;;3.72;;
43363;SDS011;40636;52.424;-1.948;2023-06-04T04:28:58;10.50;;;4.28;;
43363;SDS011;40636;52.424;-1.948;2023-06-04T04:31:26;10.07;;;4.38;;
43363;SDS011;40636;52.424;-1.948;2023-06-04T04:33:57;14.45;;;5.28;;
43363;SDS011;40636;52.424;-1.948;2023-06-04T04:36:24;12.23;;;5.28;;
43363;SDS011;40636;52.424;-1.948;2023-06-04T04:38:51;12.60;;;4.18;;
43363;SDS011;40636;52.424;-1.948;2023-06-04T04:41:21;14.65;;;4.38;;
43363;SDS011;40636;52.424;-1.948;2023-06-04T04:43:49;11.00;;;4.03;;
43363;SDS011;40636;52.424;-1.948;2023-06-04T04:46:19;11.07;;;4.13;;
43363;SDS011;40636;52.424;-1.948;2023-06-04T04:48:46;17.77;;;6.90;;
43363;SDS011;40636;52.424;-1.948;2023-06-04T04:51:13;8.05;;;3.80;;
43363;SDS011;40636;52.424;-1.948;2023-06-04T04:53:40;19.60;;;5.65;;
43363;SDS011;40636;52.424;-1.948;2023-06-04T04:56:08;10.07;;;4.57;;
43363;SDS011;40636;52.424;-1.948;2023-06-04T04:58:34;15.27;;;5.55;;
43363;SDS011;40636;52.424;-1.948;2023-06-04T05:01:01;11.80;;;3.53;;
43363;SDS011;40636;52.424;-1.948;2023-06-04T05:03:28;13.10;;;4.60;;
43363;SDS011;40636;52.424;-1.948;2023-06-04T05:05:55;12.60;;;4.70;;
43363;SDS011;40636;52.424;-1.948;2023-06-04T05:08:22;8.05;;;5.03;;
43363;SDS011;40636;52.424;-1.948;2023-06-04T05:10:52;8.77;;;4.50;;
43363;SDS011;40636;52.424;-1.948;2023-06-04T05:13:19;16.33;;;5.13;;
43363;SDS011;40636;52.424;-1.948;2023-06-04T05:15:46;9.25;;;5.05;;
43363;SDS011;40636;52.424;-1.948;2023-06-04T05:18:14;9.20;;;5.03;;
43363;SDS011;40636;52.424;-1.948;2023-06-04T05:20:42;10.20;;;5.25;;
43363;SDS011;40636;52.424;-1.948;2023-06-04T05:23:09;9.18;;;4.70;;
43363;SDS011;40636;52.424;-1.948;2023-06-04T05:25:38;9.25;;;5.13;;
43363;SDS011;40636;52.424;-1.948;2023-06-04T05:28:07;10.15;;;5.35;;
43363;SDS011;40636;52.424;-1.948;2023-06-04T05:30:34;11.35;;;4.53;;
43363;SDS011;40636;52.424;-1.948;2023-06-04T05:33:01;11.48;;;4.53;;
43363;SDS011;40636;52.424;-1.948;2023-06-04T05:35:28;8.65;;;4.85;;
43363;SDS011;40636;52.424;-1.948;2023-06-04T05:37:54;10.68;;;5.38;;
43363;SDS011;40636;52.424;-1.948;2023-06-04T05:40:21;9.50;;;4.13;;
43363;SDS011;40636;52.424;-1.948;2023-06-04T05:42:48;10.32;;;4.82;;
43363;SDS011;40636;52.424;-1.948;2023-06-04T05:45:15;6.35;;;4.35;;
43363;SDS011;40636;52.424;-1.948;2023-06-04T05:47:43;10.10;;;5.20;;
43363;SDS011;40636;52.424;-1.948;2023-06-04T05:50:09;12.55;;;5.55;;
43363;SDS011;40636;52.424;-1.948;2023-06-04T05:52:36;12.35;;;6.40;;
43363;SDS011;40636;52.424;-1.948;2023-06-04T05:55:04;13.95;;;5.13;;
43363;SDS011;40636;52.424;-1.948;2023-06-04T05:57:34;13.82;;;6.03;;
43363;SDS011;40636;52.424;-1.948;2023-06-04T06:00:01;8.88;;;4.38;;
43363;SDS011;40636;52.424;-1.948;2023-06-04T06:02:32;12.18;;;5.07;;
43363;SDS011;40636;52.424;-1.948;2023-06-04T06:05:01;14.52;;;6.13;;
43363;SDS011;40636;52.424;-1.948;2023-06-04T06:07:28;10.90;;;5.00;;
43363;SDS011;40636;52.424;-1.948;2023-06-04T06:09:55;14.20;;;6.18;;
43363;SDS011;40636;52.424;-1.948;2023-06-04T06:12:21;12.18;;;5.68;;
43363;SDS011;40636;52.424;-1.948;2023-06-04T06:14:48;8.60;;;4.47;;
43363;SDS011;40636;52.424;-1.948;2023-06-04T06:17:15;10.45;;;5.15;;
43363;SDS011;40636;52.424;-1.948;2023-06-04T06:19:43;10.23;;;5.50;;
43363;SDS011;40636;52.424;-1.948;2023-06-04T06:22:09;8.10;;;4.97;;
43363;SDS011;40636;52.424;-1.948;2023-06-04T06:24:36;11.48;;;5.97;;
43363;SDS011;40636;52.424;-1.948;2023-06-04T06:27:03;14.32;;;5.10;;
43363;SDS011;40636;52.424;-1.948;2023-06-04T06:29:31;14.38;;;5.63;;
43363;SDS011;40636;52.424;-1.948;2023-06-04T06:31:58;11.35;;;5.70;;
43363;SDS011;40636;52.424;-1.948;2023-06-04T06:34:25;10.20;;;4.32;;
43363;SDS011;40636;52.424;-1.948;2023-06-04T06:36:53;10.63;;;5.57;;
43363;SDS011;40636;52.424;-1.948;2023-06-04T06:39:19;10.93;;;4.75;;
43363;SDS011;40636;52.424;-1.948;2023-06-04T06:41:46;12.45;;;5.78;;
43363;SDS011;40636;52.424;-1.948;2023-06-04T06:44:13;10.40;;;6.03;;
43363;SDS011;40636;52.424;-1.948;2023-06-04T06:46:40;10.43;;;5.63;;
43363;SDS011;40636;52.424;-1.948;2023-06-04T06:49:07;14.07;;;6.95;;
43363;SDS011;40636;52.424;-1.948;2023-06-04T06:51:34;15.07;;;5.72;;
43363;SDS011;40636;52.424;-1.948;2023-06-04T06:54:01;13.30;;;5.18;;
43363;SDS011;40636;52.424;-1.948;2023-06-04T06:56:28;9.43;;;5.75;;
43363;SDS011;40636;52.424;-1.948;2023-06-04T06:58:56;9.63;;;5.10;;
43363;SDS011;40636;52.424;-1.948;2023-06-04T07:01:23;11.52;;;5.85;;
43363;SDS011;40636;52.424;-1.948;2023-06-04T07:03:50;7.57;;;4.72;;
43363;SDS011;40636;52.424;-1.948;2023-06-04T07:06:17;11.98;;;5.47;;
43363;SDS011;40636;52.424;-1.948;2023-06-04T07:08:44;10.90;;;4.30;;
43363;SDS011;40636;52.424;-1.948;2023-06-04T07:11:11;8.80;;;4.40;;
43363;SDS011;40636;52.424;-1.948;2023-06-04T07:13:38;9.82;;;4.43;;
43363;SDS011;40636;52.424;-1.948;2023-06-04T07:16:05;9.85;;;3.80;;
43363;SDS011;40636;52.424;-1.948;2023-06-04T07:18:32;11.38;;;4.93;;
43363;SDS011;40636;52.424;-1.948;2023-06-04T07:20:59;12.98;;;4.20;;
43363;SDS011;40636;52.424;-1.948;2023-06-04T07:23:26;9.32;;;3.90;;
43363;SDS011;40636;52.424;-1.948;2023-06-04T07:25:53;9.65;;;4.95;;
43363;SDS011;40636;52.424;-1.948;2023-06-04T07:28:20;9.68;;;5.25;;
43363;SDS011;40636;52.424;-1.948;2023-06-04T07:30:47;4.93;;;3.35;;
43363;SDS011;40636;52.424;-1.948;2023-06-04T07:33:14;5.70;;;3.83;;
43363;SDS011;40636;52.424;-1.948;2023-06-04T07:35:42;7.07;;;3.80;;
43363;SDS011;40636;52.424;-1.948;2023-06-04T07:38:09;5.93;;;3.50;;
43363;SDS011;40636;52.424;-1.948;2023-06-04T07:40:36;5.20;;;2.50;;
43363;SDS011;40636;52.424;-1.948;2023-06-04T07:43:03;11.43;;;3.15;;
43363;SDS011;40636;52.424;-1.948;2023-06-04T07:45:30;5.50;;;3.42;;
43363;SDS011;40636;52.424;-1.948;2023-06-04T07:48:01;8.05;;;3.38;;
43363;SDS011;40636;52.424;-1.948;2023-06-04T07:50:28;8.20;;;2.80;;
43363;SDS011;40636;52.424;-1.948;2023-06-04T07:52:54;7.55;;;2.90;;
43363;SDS011;40636;52.424;-1.948;2023-06-04T07:55:21;10.52;;;3.67;;
43363;SDS011;40636;52.424;-1.948;2023-06-04T07:57:48;7.82;;;3.28;;
43363;SDS011;40636;52.424;-1.948;2023-06-04T08:00:15;5.95;;;2.90;;
43363;SDS011;40636;52.424;-1.948;2023-06-04T08:02:44;5.18;;;2.95;;
43363;SDS011;40636;52.424;-1.948;2023-06-04T08:05:11;4.78;;;3.42;;
43363;SDS011;40636;52.424;-1.948;2023-06-04T08:07:40;5.63;;;3.40;;
43363;SDS011;40636;52.424;-1.948;2023-06-04T08:10:08;7.13;;;2.58;;
43363;SDS011;40636;52.424;-1.948;2023-06-04T08:12:35;5.35;;;2.53;;
43363;SDS011;40636;52.424;-1.948;2023-06-04T08:15:02;6.82;;;2.40;;
43363;SDS011;40636;52.424;-1.948;2023-06-04T08:17:29;7.32;;;2.33;;
43363;SDS011;40636;52.424;-1.948;2023-06-04T08:19:56;6.55;;;3.20;;
43363;SDS011;40636;52.424;-1.948;2023-06-04T08:22:23;3.75;;;2.58;;
43363;SDS011;40636;52.424;-1.948;2023-06-04T08:24:50;3.90;;;2.38;;
43363;SDS011;40636;52.424;-1.948;2023-06-04T08:27:17;4.38;;;2.08;;
43363;SDS011;40636;52.424;-1.948;2023-06-04T08:29:44;4.88;;;2.30;;
43363;SDS011;40636;52.424;-1.948;2023-06-04T08:32:11;7.57;;;2.80;;
43363;SDS011;40636;52.424;-1.948;2023-06-04T08:34:38;8.73;;;3.10;;
43363;SDS011;40636;52.424;-1.948;2023-06-04T08:37:05;3.35;;;2.45;;
43363;SDS011;40636;52.424;-1.948;2023-06-04T08:39:32;4.18;;;2.50;;
43363;SDS011;40636;52.424;-1.948;2023-06-04T08:42:00;7.45;;;2.65;;
43363;SDS011;40636;52.424;-1.948;2023-06-04T08:44:30;4.57;;;2.20;;
43363;SDS011;40636;52.424;-1.948;2023-06-04T08:47:01;8.27;;;3.47;;
43363;SDS011;40636;52.424;-1.948;2023-06-04T08:49:35;6.35;;;2.90;;
43363;SDS011;40636;52.424;-1.948;2023-06-04T08:52:03;5.07;;;2.78;;
43363;SDS011;40636;52.424;-1.948;2023-06-04T08:54:30;7.15;;;3.25;;
43363;SDS011;40636;52.424;-1.948;2023-06-04T08:56:58;4.85;;;2.45;;
43363;SDS011;40636;52.424;-1.948;2023-06-04T08:59:27;8.38;;;3.17;;
43363;SDS011;40636;52.424;-1.948;2023-06-04T09:01:54;5.28;;;2.88;;
43363;SDS011;40636;52.424;-1.948;2023-06-04T09:04:22;5.65;;;3.58;;
43363;SDS011;40636;52.424;-1.948;2023-06-04T09:06:49;8.60;;;3.85;;
43363;SDS011;40636;52.424;-1.948;2023-06-04T09:09:16;6.47;;;4.45;;
43363;SDS011;40636;52.424;-1.948;2023-06-04T09:11:46;8.57;;;4.60;;
43363;SDS011;40636;52.424;-1.948;2023-06-04T09:14:14;7.32;;;4.28;;
43363;SDS011;40636;52.424;-1.948;2023-06-04T09:16:48;8.65;;;5.10;;
43363;SDS011;40636;52.424;-1.948;2023-06-04T09:19:20;8.32;;;4.80;;
43363;SDS011;40636;52.424;-1.948;2023-06-04T09:24:20;7.93;;;4.43;;
43363;SDS011;40636;52.424;-1.948;2023-06-04T09:26:55;9.25;;;5.20;;
43363;SDS011;40636;52.424;-1.948;2023-06-04T09:30:14;9.88;;;6.38;;
43363;SDS011;40636;52.424;-1.948;2023-06-04T09:32:41;8.63;;;6.20;;
43363;SDS011;40636;52.424;-1.948;2023-06-04T09:35:09;11.38;;;7.00;;
43363;SDS011;40636;52.424;-1.948;2023-06-04T09:37:41;13.15;;;6.30;;
43363;SDS011;40636;52.424;-1.948;2023-06-04T09:40:09;9.95;;;5.63;;
43363;SDS011;40636;52.424;-1.948;2023-06-04T09:42:43;17.42;;;7.25;;
43363;SDS011;40636;52.424;-1.948;2023-06-04T09:45:26;7.40;;;4.93;;
43363;SDS011;40636;52.424;-1.948;2023-06-04T09:47:55;11.70;;;5.85;;
43363;SDS011;40636;52.424;-1.948;2023-06-04T09:50:25;12.50;;;5.93;;
43363;SDS011;40636;52.424;-1.948;2023-06-04T09:52:54;11.85;;;7.00;;
43363;SDS011;40636;52.424;-1.948;2023-06-04T09:55:21;10.63;;;6.68;;
43363;SDS011;40636;52.424;-1.948;2023-06-04T09:57:49;12.15;;;6.80;;
43363;SDS011;40636;52.424;-1.948;2023-06-04T10:00:18;14.98;;;7.93;;
43363;SDS011;40636;52.424;-1.948;2023-06-04T10:02:47;14.43;;;7.82;;
43363;SDS011;40636;52.424;-1.948;2023-06-04T10:05:15;16.73;;;7.82;;
43363;SDS011;40636;52.424;-1.948;2023-06-04T10:07:43;12.63;;;7.72;;
43363;SDS011;40636;52.424;-1.948;2023-06-04T10:10:16;13.35;;;7.05;;
43363;SDS011;40636;52.424;-1.948;2023-06-04T10:12:50;17.38;;;8.35;;
43363;SDS011;40636;52.424;-1.948;2023-06-04T10:15:21;13.40;;;8.05;;
43363;SDS011;40636;52.424;-1.948;2023-06-04T10:17:47;11.50;;;6.75;;
43363;SDS011;40636;52.424;-1.948;2023-06-04T10:20:16;12.98;;;7.10;;
43363;SDS011;40636;52.424;-1.948;2023-06-04T10:22:44;15.45;;;8.15;;
43363;SDS011;40636;52.424;-1.948;2023-06-04T10:25:11;13.20;;;8.60;;
43363;SDS011;40636;52.424;-1.948;2023-06-04T10:27:39;15.60;;;7.85;;
43363;SDS011;40636;52.424;-1.948;2023-06-04T10:30:06;12.57;;;7.35;;
43363;SDS011;40636;52.424;-1.948;2023-06-04T10:32:34;16.10;;;9.20;;
43363;SDS011;40636;52.424;-1.948;2023-06-04T10:35:05;14.32;;;7.85;;
43363;SDS011;40636;52.424;-1.948;2023-06-04T10:37:34;15.02;;;8.10;;
43363;SDS011;40636;52.424;-1.948;2023-06-04T10:40:02;16.08;;;7.43;;
43363;SDS011;40636;52.424;-1.948;2023-06-04T10:42:38;10.43;;;6.70;;
43363;SDS011;40636;52.424;-1.948;2023-06-04T10:45:07;14.02;;;7.15;;
43363;SDS011;40636;52.424;-1.948;2023-06-04T10:47:36;9.27;;;5.53;;
43363;SDS011;40636;52.424;-1.948;2023-06-04T10:50:08;11.70;;;6.35;;
43363;SDS011;40636;52.424;-1.948;2023-06-04T10:52:52;11.23;;;6.57;;
43363;SDS011;40636;52.424;-1.948;2023-06-04T10:55:24;13.65;;;6.38;;
43363;SDS011;40636;52.424;-1.948;2023-06-04T10:57:52;10.60;;;6.80;;
43363;SDS011;40636;52.424;-1.948;2023-06-04T11:00:20;12.88;;;5.90;;
43363;SDS011;40636;52.424;-1.948;2023-06-04T11:02:53;13.40;;;6.97;;
43363;SDS011;40636;52.424;-1.948;2023-06-04T11:05:33;11.75;;;6.72;;
43363;SDS011;40636;52.424;-1.948;2023-06-04T11:08:09;14.07;;;7.57;;
43363;SDS011;40636;52.424;-1.948;2023-06-04T11:10:38;13.70;;;6.95;;
43363;SDS011;40636;52.424;-1.948;2023-06-04T11:13:09;11.15;;;7.20;;
43363;SDS011;40636;52.424;-1.948;2023-06-04T11:15:46;13.35;;;7.35;;
43363;SDS011;40636;52.424;-1.948;2023-06-04T11:18:16;11.38;;;7.85;;
43363;SDS011;40636;52.424;-1.948;2023-06-04T11:20:47;9.57;;;6.88;;
43363;SDS011;40636;52.424;-1.948;2023-06-04T11:23:16;9.68;;;6.28;;
43363;SDS011;40636;52.424;-1.948;2023-06-04T11:25:44;12.15;;;6.55;;
43363;SDS011;40636;52.424;-1.948;2023-06-04T11:28:15;14.05;;;6.55;;
43363;SDS011;40636;52.424;-1.948;2023-06-04T11:31:00;14.23;;;6.13;;
43363;SDS011;40636;52.424;-1.948;2023-06-04T11:33:30;10.65;;;6.03;;
43363;SDS011;40636;52.424;-1.948;2023-06-04T11:35:57;12.20;;;5.78;;
43363;SDS011;40636;52.424;-1.948;2023-06-04T11:38:24;10.20;;;5.80;;
43363;SDS011;40636;52.424;-1.948;2023-06-04T11:40:57;8.40;;;5.40;;
43363;SDS011;40636;52.424;-1.948;2023-06-04T11:43:28;11.57;;;5.45;;
43363;SDS011;40636;52.424;-1.948;2023-06-04T11:45:56;12.43;;;6.45;;
43363;SDS011;40636;52.424;-1.948;2023-06-04T11:48:25;7.88;;;4.97;;
43363;SDS011;40636;52.424;-1.948;2023-06-04T11:50:52;6.45;;;4.25;;
43363;SDS011;40636;52.424;-1.948;2023-06-04T11:53:20;17.00;;;5.20;;
43363;SDS011;40636;52.424;-1.948;2023-06-04T11:55:47;7.53;;;4.05;;
43363;SDS011;40636;52.424;-1.948;2023-06-04T11:58:14;8.50;;;4.53;;
43363;SDS011;40636;52.424;-1.948;2023-06-04T12:00:42;7.05;;;4.22;;
43363;SDS011;40636;52.424;-1.948;2023-06-04T12:03:08;5.18;;;3.33;;
43363;SDS011;40636;52.424;-1.948;2023-06-04T12:05:36;10.95;;;4.40;;
43363;SDS011;40636;52.424;-1.948;2023-06-04T12:08:06;8.77;;;3.67;;
43363;SDS011;40636;52.424;-1.948;2023-06-04T12:10:39;4.13;;;3.22;;
43363;SDS011;40636;52.424;-1.948;2023-06-04T12:13:07;4.18;;;2.55;;
43363;SDS011;40636;52.424;-1.948;2023-06-04T12:15:34;6.57;;;3.42;;
43363;SDS011;40636;52.424;-1.948;2023-06-04T12:18:01;5.97;;;3.17;;
43363;SDS011;40636;52.424;-1.948;2023-06-04T12:20:37;7.72;;;2.95;;
43363;SDS011;40636;52.424;-1.948;2023-06-04T12:23:06;6.88;;;3.70;;
43363;SDS011;40636;52.424;-1.948;2023-06-04T12:25:34;5.47;;;3.60;;
43363;SDS011;40636;52.424;-1.948;2023-06-04T12:28:04;7.88;;;3.70;;
43363;SDS011;40636;52.424;-1.948;2023-06-04T12:30:35;4.72;;;2.65;;
43363;SDS011;40636;52.424;-1.948;2023-06-04T12:33:06;8.25;;;3.20;;
43363;SDS011;40636;52.424;-1.948;2023-06-04T12:35:34;4.22;;;2.72;;
43363;SDS011;40636;52.424;-1.948;2023-06-04T12:38:04;4.25;;;3.10;;
43363;SDS011;40636;52.424;-1.948;2023-06-04T12:40:32;4.05;;;2.83;;
43363;SDS011;40636;52.424;-1.948;2023-06-04T12:42:59;4.75;;;2.58;;
43363;SDS011;40636;52.424;-1.948;2023-06-04T12:45:26;6.03;;;2.88;;
43363;SDS011;40636;52.424;-1.948;2023-06-04T12:47:55;5.00;;;2.80;;
43363;SDS011;40636;52.424;-1.948;2023-06-04T12:50:22;5.43;;;3.40;;
43363;SDS011;40636;52.424;-1.948;2023-06-04T12:52:49;4.97;;;3.05;;
43363;SDS011;40636;52.424;-1.948;2023-06-04T12:55:16;4.20;;;2.35;;
43363;SDS011;40636;52.424;-1.948;2023-06-04T12:57:42;4.88;;;3.22;;
43363;SDS011;40636;52.424;-1.948;2023-06-04T13:00:11;5.00;;;2.92;;
43363;SDS011;40636;52.424;-1.948;2023-06-04T13:02:39;3.90;;;2.38;;
43363;SDS011;40636;52.424;-1.948;2023-06-04T13:05:06;4.28;;;2.53;;
43363;SDS011;40636;52.424;-1.948;2023-06-04T13:07:34;4.47;;;3.00;;
43363;SDS011;40636;52.424;-1.948;2023-06-04T13:10:00;7.88;;;2.65;;
43363;SDS011;40636;52.424;-1.948;2023-06-04T13:12:27;6.47;;;3.38;;
43363;SDS011;40636;52.424;-1.948;2023-06-04T13:14:54;5.65;;;2.97;;
43363;SDS011;40636;52.424;-1.948;2023-06-04T13:17:22;4.45;;;2.95;;
43363;SDS011;40636;52.424;-1.948;2023-06-04T13:19:49;4.43;;;2.92;;
43363;SDS011;40636;52.424;-1.948;2023-06-04T13:22:16;6.13;;;3.67;;
43363;SDS011;40636;52.424;-1.948;2023-06-04T13:24:43;9.10;;;3.78;;
43363;SDS011;40636;52.424;-1.948;2023-06-04T13:27:10;3.75;;;2.47;;
43363;SDS011;40636;52.424;-1.948;2023-06-04T13:29:37;5.35;;;2.30;;
43363;SDS011;40636;52.424;-1.948;2023-06-04T13:32:04;6.78;;;2.75;;
43363;SDS011;40636;52.424;-1.948;2023-06-04T13:34:31;7.85;;;3.47;;
43363;SDS011;40636;52.424;-1.948;2023-06-04T13:36:58;5.40;;;3.05;;
43363;SDS011;40636;52.424;-1.948;2023-06-04T13:39:25;5.43;;;3.60;;
43363;SDS011;40636;52.424;-1.948;2023-06-04T13:41:52;5.30;;;3.20;;
43363;SDS011;40636;52.424;-1.948;2023-06-04T13:44:21;3.88;;;2.47;;
43363;SDS011;40636;52.424;-1.948;2023-06-04T13:46:52;3.25;;;2.83;;
43363;SDS011;40636;52.424;-1.948;2023-06-04T13:49:20;3.35;;;2.47;;
43363;SDS011;40636;52.424;-1.948;2023-06-04T13:51:47;4.03;;;2.42;;
43363;SDS011;40636;52.424;-1.948;2023-06-04T13:54:14;4.40;;;3.10;;
43363;SDS011;40636;52.424;-1.948;2023-06-04T13:56:41;3.72;;;2.58;;
43363;SDS011;40636;52.424;-1.948;2023-06-04T13:59:08;5.05;;;2.38;;
43363;SDS011;40636;52.424;-1.948;2023-06-04T14:01:34;6.05;;;3.30;;
43363;SDS011;40636;52.424;-1.948;2023-06-04T14:04:01;4.75;;;2.50;;
43363;SDS011;40636;52.424;-1.948;2023-06-04T14:06:32;3.03;;;2.13;;
43363;SDS011;40636;52.424;-1.948;2023-06-04T14:09:02;4.80;;;3.22;;
43363;SDS011;40636;52.424;-1.948;2023-06-04T14:11:30;3.47;;;2.35;;
43363;SDS011;40636;52.424;-1.948;2023-06-04T14:13:59;5.10;;;2.38;;
43363;SDS011;40636;52.424;-1.948;2023-06-04T14:16:25;3.75;;;3.08;;
43363;SDS011;40636;52.424;-1.948;2023-06-04T14:18:53;4.28;;;2.40;;
43363;SDS011;40636;52.424;-1.948;2023-06-04T14:21:20;3.33;;;1.88;;
43363;SDS011;40636;52.424;-1.948;2023-06-04T14:23:48;5.53;;;2.08;;
43363;SDS011;40636;52.424;-1.948;2023-06-04T14:26:17;2.92;;;1.75;;
43363;SDS011;40636;52.424;-1.948;2023-06-04T14:28:44;4.72;;;2.53;;
43363;SDS011;40636;52.424;-1.948;2023-06-04T14:31:11;2.40;;;1.75;;
43363;SDS011;40636;52.424;-1.948;2023-06-04T14:33:38;3.55;;;2.25;;
43363;SDS011;40636;52.424;-1.948;2023-06-04T14:36:05;5.43;;;2.00;;
43363;SDS011;40636;52.424;-1.948;2023-06-04T14:38:31;6.03;;;2.50;;
43363;SDS011;40636;52.424;-1.948;2023-06-04T14:40:59;3.25;;;2.45;;
43363;SDS011;40636;52.424;-1.948;2023-06-04T14:43:26;4.97;;;2.10;;
43363;SDS011;40636;52.424;-1.948;2023-06-04T14:45:52;3.22;;;2.10;;